Kyokuhoumaru No.12 — JL5963 — position and weather

sailwx.info

Track history (hours):
 
Tides and Currents Weather Stations Pressure Air Temp Water Temp Dewpoint Dewpoint Depression Visibility Wind Speed Wind Dir Waves Ship Positions

Kyokuhoumaru No.12

Last reported at 2015-Feb-27 15:32 UTC. Time now 2015-Mar-01 00:37 UTC.
Position N 35°06' E 139°40'.

Length 57 m.

Type: Tanker. MMSI: 431500879.

Date/timePositionNaut miles runAvg speedWind from/ knotsBaromVisibWave heightAir tempDewpointWater temp
2015-Feb-27 15:32N 35°06' E 139°40'11 9.5
2015-Feb-27 14:21N 35°16' E 139°45'8 9.3
2015-Feb-27 13:29N 35°24' E 139°43'3 0.1
2015-Feb-26 13:09N 35°24' E 139°46'7 8.6
2015-Feb-26 12:20N 35°17' E 139°45'7 8.7
2015-Feb-26 11:30N 35°10' E 139°47'8 8.6
2015-Feb-26 10:31N 35°03' E 139°40'  
2015-Feb-18 04:29N 34°26' E 135°10'8 8.7
2015-Feb-18 03:31N 34°31' E 135°18'5 1.3
2015-Feb-17 23:32N 34°33' E 135°24'4 4.3
2015-Feb-17 22:33N 34°32' E 135°19'0 0.0
2015-Feb-17 21:27N 34°32' E 135°19'7 7.4
2015-Feb-17 20:32N 34°34' E 135°11'  
Track history (hours):
 
Tides and Currents Weather Stations Pressure Air Temp Water Temp Dewpoint Dewpoint Depression Visibility Wind Speed Wind Dir Waves Ship Positions

Kyokuhoumaru No.12

Last reported at 2015-Feb-27 15:32 UTC. Time now 2015-Mar-01 00:37 UTC.
Position N 35°06' E 139°40'.

Length 57 m.

Type: Tanker. MMSI: 431500879.

Date/timePositionNaut miles runAvg speedWind from/ knotsBaromVisibWave heightAir tempDewpointWater temp
2015-Feb-27 15:32N 35°06' E 139°40'11 9.5
2015-Feb-27 14:21N 35°16' E 139°45'8 9.3
2015-Feb-27 13:29N 35°24' E 139°43'3 0.1
2015-Feb-26 13:09N 35°24' E 139°46'7 8.6
2015-Feb-26 12:20N 35°17' E 139°45'7 8.7
2015-Feb-26 11:30N 35°10' E 139°47'8 8.6
2015-Feb-26 10:31N 35°03' E 139°40'  
2015-Feb-18 04:29N 34°26' E 135°10'8 8.7
2015-Feb-18 03:31N 34°31' E 135°18'5 1.3
2015-Feb-17 23:32N 34°33' E 135°24'4 4.3
2015-Feb-17 22:33N 34°32' E 135°19'0 0.0
2015-Feb-17 21:27N 34°32' E 135°19'7 7.4
2015-Feb-17 20:32N 34°34' E 135°11'  

Dump ship's entire track history